createdAt,value
2023-07-07T00:00:25.029Z,16.69
2023-07-07T00:02:52.038Z,16.68
2023-07-07T00:05:19.738Z,16.69
2023-07-07T00:07:46.760Z,16.64
2023-07-07T00:10:13.695Z,16.57
2023-07-07T00:12:40.631Z,16.49
2023-07-07T00:15:08.603Z,16.42
2023-07-07T00:17:35.628Z,16.35
2023-07-07T00:20:08.892Z,16.46
2023-07-07T00:22:36.737Z,16.47
2023-07-07T00:25:05.552Z,16.34
2023-07-07T00:27:32.702Z,16.41
2023-07-07T00:30:01.461Z,16.35
2023-07-07T00:32:31.205Z,16.35
2023-07-07T00:34:58.078Z,16.27
2023-07-07T00:37:25.129Z,16.18
2023-07-07T00:39:52.322Z,16.12
2023-07-07T00:42:19.344Z,16.07
2023-07-07T00:45:16.588Z,15.97
2023-07-07T00:47:55.700Z,15.88
2023-07-07T00:50:27.988Z,15.86
2023-07-07T00:52:54.946Z,15.87
2023-07-07T00:55:43.641Z,15.89
2023-07-07T00:58:17.779Z,15.65
2023-07-07T01:00:52.931Z,15.90
2023-07-07T01:03:26.094Z,15.89
2023-07-07T01:05:57.238Z,15.72
2023-07-07T01:08:25.429Z,15.84
2023-07-07T01:10:52.387Z,15.86
2023-07-07T01:13:20.224Z,15.82
2023-07-07T01:16:07.079Z,15.79
2023-07-07T01:18:41.354Z,15.54
2023-07-07T01:21:30.709Z,15.70
2023-07-07T01:24:28.629Z,15.69
2023-07-07T01:27:55.720Z,15.64
2023-07-07T01:30:41.922Z,15.47
2023-07-07T01:33:15.534Z,15.61
2023-07-07T01:35:42.509Z,15.59
2023-07-07T01:38:43.946Z,15.56
2023-07-07T01:41:42.394Z,15.37
2023-07-07T01:44:40.282Z,15.41
2023-07-07T01:47:18.580Z,15.41
2023-07-07T01:49:56.857Z,15.41
2023-07-07T01:52:38.097Z,15.41
2023-07-07T01:55:22.116Z,15.41
2023-07-07T01:57:53.789Z,15.41
2023-07-07T02:00:22.461Z,15.41
2023-07-07T02:02:51.916Z,15.34
2023-07-07T02:05:19.170Z,15.33
2023-07-07T02:07:46.362Z,15.32
2023-07-07T02:10:13.480Z,15.31
2023-07-07T02:12:41.524Z,15.24
2023-07-07T02:15:09.195Z,15.23
2023-07-07T02:17:36.348Z,15.18
2023-07-07T02:20:04.703Z,15.16
2023-07-07T02:22:31.657Z,15.17
2023-07-07T02:24:58.710Z,15.13
2023-07-07T02:27:25.664Z,15.01
2023-07-07T02:29:52.627Z,15.08
2023-07-07T02:32:19.521Z,15.00
2023-07-07T02:34:48.394Z,15.00
2023-07-07T02:37:19.817Z,14.95
2023-07-07T02:39:47.113Z,14.89
2023-07-07T02:42:15.506Z,14.76
2023-07-07T02:44:42.743Z,14.61
2023-07-07T02:47:10.789Z,14.79
2023-07-07T02:49:38.084Z,14.62
2023-07-07T02:52:07.510Z,14.71
2023-07-07T02:54:35.980Z,14.70
2023-07-07T02:57:04.335Z,14.54
2023-07-07T02:59:31.297Z,14.68
2023-07-07T03:01:58.284Z,14.63
2023-07-07T03:04:26.018Z,14.64
2023-07-07T03:06:53.440Z,14.46
2023-07-07T03:09:20.712Z,14.23
2023-07-07T03:11:48.213Z,14.44
2023-07-07T03:14:23.026Z,14.56
2023-07-07T03:16:52.713Z,14.56
2023-07-07T03:19:25.842Z,14.56
2023-07-07T03:22:03.266Z,14.54
2023-07-07T03:24:35.593Z,14.57
2023-07-07T03:27:10.199Z,14.55
2023-07-07T03:29:41.637Z,14.54
2023-07-07T03:32:09.059Z,14.54
2023-07-07T03:34:42.172Z,14.42
2023-07-07T03:37:11.469Z,14.52
2023-07-07T03:39:38.663Z,14.54
2023-07-07T03:42:09.833Z,14.53
2023-07-07T03:44:37.407Z,14.54
2023-07-07T03:47:04.705Z,14.56
2023-07-07T03:49:32.379Z,14.62
2023-07-07T03:51:59.915Z,14.62
2023-07-07T03:54:27.269Z,14.63
2023-07-07T03:56:54.293Z,14.66
2023-07-07T03:59:22.139Z,14.61
2023-07-07T04:01:50.645Z,14.73
2023-07-07T04:04:17.818Z,14.80
2023-07-07T04:06:44.939Z,14.78
2023-07-07T04:09:11.866Z,14.84
2023-07-07T04:11:38.826Z,14.88
2023-07-07T04:14:05.983Z,14.95
2023-07-07T04:16:33.101Z,14.98
2023-07-07T04:19:00.070Z,14.99
2023-07-07T04:21:31.092Z,15.08
2023-07-07T04:24:00.459Z,15.15
2023-07-07T04:26:30.160Z,15.22
2023-07-07T04:29:00.333Z,15.36
2023-07-07T04:31:29.782Z,15.48
2023-07-07T04:33:56.945Z,15.50
2023-07-07T04:36:24.695Z,15.65
2023-07-07T04:38:52.024Z,15.83
2023-07-07T04:41:23.941Z,15.93
2023-07-07T04:43:57.504Z,15.98
2023-07-07T04:46:29.787Z,16.10
2023-07-07T04:48:56.807Z,16.15
2023-07-07T04:51:24.167Z,16.23
2023-07-07T04:53:51.282Z,16.49
2023-07-07T04:56:22.307Z,16.62
2023-07-07T04:58:51.904Z,16.74
2023-07-07T05:01:27.532Z,16.91
2023-07-07T05:03:57.665Z,17.04
2023-07-07T05:06:26.801Z,17.16
2023-07-07T05:08:54.377Z,17.30
2023-07-07T05:11:25.603Z,17.46
2023-07-07T05:13:53.766Z,17.41
2023-07-07T05:16:24.549Z,17.59
2023-07-07T05:18:51.732Z,17.67
2023-07-07T05:21:21.758Z,17.49
2023-07-07T05:23:48.930Z,17.66
2023-07-07T05:26:15.880Z,17.88
2023-07-07T05:28:42.877Z,17.85
2023-07-07T05:31:10.157Z,17.86
2023-07-07T05:33:39.902Z,18.01
2023-07-07T05:36:09.571Z,18.06
2023-07-07T05:38:39.414Z,18.03
2023-07-07T05:41:06.929Z,18.24
2023-07-07T05:43:35.423Z,18.36
2023-07-07T05:46:13.282Z,18.39
2023-07-07T05:48:41.418Z,18.61
2023-07-07T05:51:13.495Z,18.65
2023-07-07T05:53:42.041Z,18.79
2023-07-07T05:56:16.610Z,19.13
2023-07-07T05:58:43.868Z,19.33
2023-07-07T06:01:14.443Z,19.25
2023-07-07T06:03:42.646Z,19.38
2023-07-07T06:06:09.787Z,19.42
2023-07-07T06:08:36.773Z,19.64
2023-07-07T06:11:03.907Z,19.70
2023-07-07T06:13:30.965Z,19.82
2023-07-07T06:15:58.732Z,19.95
2023-07-07T06:18:25.889Z,20.09
2023-07-07T06:20:57.372Z,20.14
2023-07-07T06:23:24.889Z,20.25
2023-07-07T06:25:52.159Z,19.53
2023-07-07T06:28:19.366Z,20.26
2023-07-07T06:30:51.444Z,20.11
2023-07-07T06:33:21.179Z,20.43
2023-07-07T06:35:52.345Z,20.68
2023-07-07T06:38:19.322Z,20.75
2023-07-07T06:40:49.662Z,20.88
2023-07-07T06:43:20.292Z,21.10
2023-07-07T06:45:56.423Z,21.25
2023-07-07T06:48:23.557Z,21.49
2023-07-07T06:50:50.585Z,21.75
2023-07-07T06:53:17.560Z,21.90
2023-07-07T06:55:44.737Z,21.99
2023-07-07T06:58:13.837Z,22.10
2023-07-07T07:00:42.874Z,22.04
2023-07-07T07:03:09.986Z,22.39
2023-07-07T07:05:37.064Z,22.40
2023-07-07T07:08:04.323Z,22.34
2023-07-07T07:10:31.268Z,22.17
2023-07-07T07:12:58.234Z,22.63
2023-07-07T07:15:25.238Z,22.90
2023-07-07T07:17:52.253Z,23.18
2023-07-07T07:20:19.405Z,23.20
2023-07-07T07:22:46.400Z,23.16
2023-07-07T07:25:13.361Z,23.15
2023-07-07T07:27:40.320Z,23.20
2023-07-07T07:30:09.153Z,23.27
2023-07-07T07:32:37.196Z,23.11
2023-07-07T07:35:05.093Z,23.34
2023-07-07T07:37:32.234Z,23.34
2023-07-07T07:39:59.212Z,23.43
2023-07-07T07:42:26.138Z,23.61
2023-07-07T07:44:53.072Z,23.82
2023-07-07T07:47:21.276Z,24.05
2023-07-07T07:49:49.506Z,24.16
2023-07-07T07:52:17.634Z,24.23
2023-07-07T07:54:45.219Z,24.34
2023-07-07T07:57:12.338Z,24.66
2023-07-07T07:59:39.328Z,24.59
2023-07-07T08:02:10.243Z,24.78
2023-07-07T08:04:37.277Z,24.80
2023-07-07T08:07:04.895Z,25.01
2023-07-07T08:09:31.883Z,25.21
2023-07-07T08:12:01.464Z,25.43
2023-07-07T08:14:33.443Z,25.70
2023-07-07T08:17:19.128Z,26.08
2023-07-07T08:19:49.189Z,26.33
2023-07-07T08:22:22.473Z,26.53
2023-07-07T08:24:54.684Z,26.58
2023-07-07T08:29:55.281Z,26.55
2023-07-07T08:32:24.050Z,26.31
2023-07-07T08:34:55.016Z,26.12
2023-07-07T08:37:26.707Z,26.27
2023-07-07T08:39:54.423Z,26.37
2023-07-07T08:42:42.116Z,26.60
2023-07-07T08:45:17.221Z,26.90
2023-07-07T08:48:03.105Z,27.01
2023-07-07T08:50:43.257Z,27.48
2023-07-07T08:54:01.014Z,27.47
2023-07-07T08:57:09.982Z,27.34
2023-07-07T08:59:57.357Z,27.48
2023-07-07T09:02:55.357Z,27.33
2023-07-07T09:05:41.290Z,27.39
2023-07-07T09:08:28.192Z,26.78
2023-07-07T09:11:25.913Z,26.66
2023-07-07T09:13:58.017Z,26.87
2023-07-07T09:16:39.919Z,27.03
2023-07-07T09:19:17.439Z,27.35
2023-07-07T09:21:58.284Z,27.80
2023-07-07T09:24:47.096Z,27.96
2023-07-07T09:27:29.267Z,28.12
2023-07-07T09:30:25.231Z,28.49
2023-07-07T09:32:52.334Z,28.72
2023-07-07T09:35:21.705Z,28.71
2023-07-07T09:38:23.060Z,27.91
2023-07-07T09:41:34.905Z,27.41
2023-07-07T09:44:16.083Z,27.22
2023-07-07T09:47:42.176Z,26.59
2023-07-07T09:50:28.120Z,27.24
2023-07-07T09:53:48.171Z,27.26
2023-07-07T09:56:26.910Z,27.72
2023-07-07T09:59:11.969Z,27.94
2023-07-07T10:01:43.548Z,27.86
2023-07-07T10:04:16.770Z,27.84
2023-07-07T10:07:03.940Z,27.94
2023-07-07T10:09:32.452Z,27.38
2023-07-07T10:14:32.458Z,28.09
2023-07-07T10:17:16.031Z,28.30
2023-07-07T10:19:56.538Z,28.85
2023-07-07T10:22:23.737Z,29.33
2023-07-07T10:24:51.146Z,29.75
2023-07-07T10:27:24.986Z,29.72
2023-07-07T10:29:57.428Z,29.41
2023-07-07T10:32:25.243Z,29.16
2023-07-07T10:34:59.819Z,29.36
2023-07-07T10:37:32.040Z,29.58
2023-07-07T10:40:01.689Z,29.77
2023-07-07T10:42:30.760Z,29.72
2023-07-07T10:44:59.972Z,29.87
2023-07-07T10:47:31.301Z,30.14
2023-07-07T10:50:00.100Z,30.35
2023-07-07T10:56:07.230Z,30.38
2023-07-07T10:59:03.587Z,30.72
2023-07-07T11:02:18.053Z,31.17
2023-07-07T11:05:17.521Z,31.40
2023-07-07T11:07:53.607Z,31.49
2023-07-07T11:10:51.588Z,31.69
2023-07-07T11:13:33.383Z,31.79
2023-07-07T11:16:38.686Z,31.19
2023-07-07T11:20:09.082Z,31.34
2023-07-07T11:23:04.755Z,31.68
2023-07-07T11:26:01.095Z,31.84
2023-07-07T11:28:56.533Z,31.45
2023-07-07T11:31:37.305Z,31.22
2023-07-07T11:34:56.007Z,31.27
2023-07-07T11:37:48.933Z,31.66
2023-07-07T11:40:47.245Z,31.80
2023-07-07T11:43:51.456Z,31.50
2023-07-07T11:46:40.602Z,31.33
2023-07-07T11:49:44.202Z,31.09
2023-07-07T11:52:39.886Z,30.58
2023-07-07T11:55:38.533Z,30.56
2023-07-07T11:58:23.125Z,30.68
2023-07-07T12:01:06.089Z,30.24
2023-07-07T12:03:46.416Z,30.05
2023-07-07T12:06:31.073Z,30.28
2023-07-07T12:09:12.354Z,30.48
2023-07-07T12:11:49.904Z,30.87
2023-07-07T12:14:52.315Z,30.85
2023-07-07T12:17:37.787Z,31.37
2023-07-07T12:20:34.350Z,32.05
2023-07-07T12:23:05.523Z,32.18
2023-07-07T12:25:34.203Z,32.36
2023-07-07T12:28:01.987Z,32.47
2023-07-07T12:30:47.676Z,32.71
2023-07-07T12:33:17.922Z,32.53
2023-07-07T12:35:58.335Z,32.82
2023-07-07T12:38:30.080Z,32.31
2023-07-07T12:41:23.871Z,31.12
2023-07-07T12:44:03.857Z,31.06
2023-07-07T12:46:34.628Z,31.61
2023-07-07T12:49:17.498Z,31.64
2023-07-07T12:51:44.892Z,31.51
2023-07-07T12:54:34.309Z,31.80
2023-07-07T12:57:05.672Z,32.13
2023-07-07T12:59:39.575Z,32.39
2023-07-07T13:02:24.170Z,32.61
2023-07-07T13:05:02.094Z,33.06
2023-07-07T13:07:31.949Z,33.25
2023-07-07T13:10:03.627Z,33.30
2023-07-07T13:12:47.882Z,33.14
2023-07-07T13:15:27.676Z,33.07
2023-07-07T13:17:57.092Z,32.85
2023-07-07T13:20:26.318Z,32.79
2023-07-07T13:23:15.195Z,33.07
2023-07-07T13:25:47.436Z,33.29
2023-07-07T13:28:17.442Z,33.36
2023-07-07T13:30:49.623Z,32.91
2023-07-07T13:33:19.952Z,32.70
2023-07-07T13:35:57.745Z,32.82
2023-07-07T13:38:29.666Z,32.62
2023-07-07T13:40:57.719Z,32.38
2023-07-07T13:43:41.048Z,32.57
2023-07-07T13:46:26.190Z,32.92
2023-07-07T13:49:03.765Z,33.11
2023-07-07T13:51:40.900Z,33.04
2023-07-07T13:54:13.294Z,33.08
2023-07-07T13:57:03.387Z,33.15
2023-07-07T13:59:31.422Z,33.04
2023-07-07T14:01:59.273Z,32.41
2023-07-07T14:04:36.740Z,32.62
2023-07-07T14:07:04.431Z,32.88
2023-07-07T14:09:45.281Z,32.96
2023-07-07T14:12:16.521Z,33.03
2023-07-07T14:14:48.349Z,32.67
2023-07-07T14:17:38.586Z,32.56
2023-07-07T14:20:20.646Z,32.86
2023-07-07T14:22:48.270Z,32.49
2023-07-07T14:25:19.562Z,31.42
2023-07-07T14:27:46.807Z,31.08
2023-07-07T14:30:20.403Z,31.47
2023-07-07T14:32:49.814Z,31.66
2023-07-07T14:35:24.209Z,31.61
2023-07-07T14:38:05.772Z,31.91
2023-07-07T14:40:45.300Z,31.96
2023-07-07T14:43:25.759Z,31.81
2023-07-07T14:46:01.992Z,32.06
2023-07-07T14:48:50.018Z,31.57
2023-07-07T14:51:29.677Z,31.43
2023-07-07T14:54:01.097Z,31.59
2023-07-07T14:56:37.439Z,31.69
2023-07-07T14:59:25.270Z,31.78
2023-07-07T15:02:23.128Z,31.48
2023-07-07T15:04:50.176Z,31.77
2023-07-07T15:07:28.540Z,31.88
2023-07-07T15:09:59.956Z,32.02
2023-07-07T15:12:32.207Z,31.93
2023-07-07T15:14:59.871Z,32.05
2023-07-07T15:17:27.336Z,32.13
2023-07-07T15:19:54.684Z,32.19
2023-07-07T15:22:22.584Z,32.15
2023-07-07T15:24:51.765Z,31.79
2023-07-07T15:27:18.720Z,31.91
2023-07-07T15:29:45.640Z,32.02
2023-07-07T15:32:14.022Z,32.07
2023-07-07T15:34:41.159Z,32.25
2023-07-07T15:37:14.333Z,31.88
2023-07-07T15:39:41.363Z,31.87
2023-07-07T15:42:13.042Z,31.33
2023-07-07T15:44:40.641Z,31.58
2023-07-07T15:47:22.625Z,31.69
2023-07-07T15:49:49.878Z,31.76
2023-07-07T15:52:17.918Z,31.59
2023-07-07T15:54:45.724Z,31.68
2023-07-07T15:57:13.904Z,31.61
2023-07-07T15:59:41.900Z,31.50
2023-07-07T16:02:20.639Z,31.62
2023-07-07T16:04:48.276Z,31.65
2023-07-07T16:07:16.326Z,31.65
2023-07-07T16:09:43.558Z,31.61
2023-07-07T16:12:18.104Z,31.43
2023-07-07T16:14:45.690Z,31.44
2023-07-07T16:17:16.064Z,31.39
2023-07-07T16:19:43.601Z,31.21
2023-07-07T16:22:13.130Z,30.95
2023-07-07T16:24:40.894Z,30.82
2023-07-07T16:27:19.039Z,30.85
2023-07-07T16:29:49.249Z,30.96
2023-07-07T16:32:16.214Z,30.99
2023-07-07T16:34:43.210Z,30.98
2023-07-07T16:37:14.244Z,30.97
2023-07-07T16:39:41.215Z,30.97
2023-07-07T16:42:15.318Z,31.00
2023-07-07T16:44:42.295Z,30.86
2023-07-07T16:47:12.888Z,30.90
2023-07-07T16:49:39.892Z,31.05
2023-07-07T16:52:08.322Z,31.14
2023-07-07T16:54:35.436Z,31.13
2023-07-07T16:57:02.432Z,31.05
2023-07-07T16:59:29.363Z,30.93
2023-07-07T17:01:56.428Z,30.93
2023-07-07T17:04:25.560Z,30.86
2023-07-07T17:06:52.913Z,30.93
2023-07-07T17:09:22.679Z,30.90
2023-07-07T17:11:49.715Z,30.87
2023-07-07T17:14:16.704Z,30.76
2023-07-07T17:16:43.828Z,30.76
2023-07-07T17:19:23.055Z,30.68
2023-07-07T17:21:51.148Z,30.56
2023-07-07T17:24:19.141Z,30.55
2023-07-07T17:26:49.470Z,30.53
2023-07-07T17:29:17.749Z,30.49
2023-07-07T17:31:45.492Z,30.45
2023-07-07T17:34:13.934Z,30.21
2023-07-07T17:36:42.004Z,30.31
2023-07-07T17:39:17.324Z,30.20
2023-07-07T17:41:44.642Z,30.02
2023-07-07T17:44:12.336Z,29.81
2023-07-07T17:46:40.064Z,29.81
2023-07-07T17:49:18.587Z,29.70
2023-07-07T17:51:47.779Z,29.58
2023-07-07T17:54:16.153Z,29.60
2023-07-07T17:56:44.205Z,29.61
2023-07-07T17:59:20.677Z,29.64
2023-07-07T18:01:49.487Z,29.54
2023-07-07T18:04:16.578Z,29.36
2023-07-07T18:06:49.206Z,29.32
2023-07-07T18:09:16.560Z,29.22
2023-07-07T18:11:43.552Z,29.35
2023-07-07T18:14:10.751Z,29.20
2023-07-07T18:16:48.677Z,29.26
2023-07-07T18:20:00.550Z,29.23
2023-07-07T18:22:13.797Z,29.16
2023-07-07T18:24:40.929Z,29.12
2023-07-07T18:27:10.811Z,29.06
2023-07-07T18:29:37.803Z,28.98
2023-07-07T18:32:11.317Z,28.88
2023-07-07T18:34:38.646Z,28.81
2023-07-07T18:37:15.272Z,28.64
2023-07-07T18:39:42.244Z,28.59
2023-07-07T18:42:10.828Z,28.48
2023-07-07T18:44:38.117Z,28.41
2023-07-07T18:47:14.007Z,28.31
2023-07-07T18:49:41.133Z,28.23
2023-07-07T18:52:09.271Z,28.11
2023-07-07T18:54:36.174Z,28.03
2023-07-07T18:57:03.150Z,27.93
2023-07-07T18:59:30.099Z,27.81
2023-07-07T19:01:57.057Z,27.77
2023-07-07T19:04:24.082Z,27.68
2023-07-07T19:06:51.045Z,27.57
2023-07-07T19:09:24.968Z,27.43
2023-07-07T19:11:54.666Z,27.35
2023-07-07T19:14:21.693Z,27.20
2023-07-07T19:16:51.545Z,27.15
2023-07-07T19:19:25.002Z,27.12
2023-07-07T19:21:51.980Z,27.02
2023-07-07T19:24:19.171Z,27.04
2023-07-07T19:26:53.215Z,26.92
2023-07-07T19:29:20.235Z,26.86
2023-07-07T19:31:47.367Z,26.75
2023-07-07T19:34:14.347Z,26.71
2023-07-07T19:36:43.357Z,26.63
2023-07-07T19:39:18.165Z,26.59
2023-07-07T19:41:46.730Z,26.54
2023-07-07T19:44:13.894Z,26.50
2023-07-07T19:46:43.118Z,26.45
2023-07-07T19:49:18.741Z,26.37
2023-07-07T19:51:47.461Z,26.25
2023-07-07T19:54:14.774Z,26.13
2023-07-07T19:56:42.034Z,26.08
2023-07-07T19:59:19.026Z,25.88
2023-07-07T20:02:21.595Z,25.85
2023-07-07T20:04:49.592Z,25.76
2023-07-07T20:07:16.516Z,25.69
2023-07-07T20:09:43.487Z,25.46
2023-07-07T20:12:13.215Z,25.50
2023-07-07T20:14:40.443Z,25.41
2023-07-07T20:17:11.471Z,25.33
2023-07-07T20:19:41.310Z,25.21
2023-07-07T20:22:13.515Z,25.13
2023-07-07T20:24:41.266Z,24.78
2023-07-07T20:27:12.808Z,25.01
2023-07-07T20:29:39.828Z,24.98
2023-07-07T20:32:15.364Z,24.94
2023-07-07T20:34:42.355Z,24.87
2023-07-07T20:37:13.426Z,24.81
2023-07-07T20:39:40.433Z,24.82
2023-07-07T20:42:15.512Z,24.78
2023-07-07T20:44:43.174Z,24.70
2023-07-07T20:47:12.077Z,24.65
2023-07-07T20:49:39.057Z,24.47
2023-07-07T20:52:14.002Z,24.55
2023-07-07T20:54:41.022Z,24.51
2023-07-07T20:57:18.986Z,24.48
2023-07-07T20:59:47.154Z,24.43
2023-07-07T21:02:14.753Z,24.41
2023-07-07T21:04:41.736Z,24.37
2023-07-07T21:07:15.046Z,24.32
2023-07-07T21:09:42.513Z,24.19
2023-07-07T21:12:10.192Z,24.17
2023-07-07T21:14:37.200Z,24.09
2023-07-07T21:17:04.278Z,24.00
2023-07-07T21:19:31.278Z,23.81
2023-07-07T21:21:58.232Z,23.67
2023-07-07T21:24:25.133Z,23.45
2023-07-07T21:26:52.063Z,23.22
2023-07-07T21:29:19.043Z,23.12
2023-07-07T21:31:46.054Z,22.95
2023-07-07T21:34:13.658Z,22.79
2023-07-07T21:36:41.917Z,22.61
2023-07-07T21:39:30.782Z,22.62
2023-07-07T21:44:30.094Z,22.44
2023-07-07T21:46:57.046Z,22.48
2023-07-07T21:49:23.957Z,22.40
2023-07-07T21:51:51.059Z,22.30
2023-07-07T21:54:18.050Z,22.35
2023-07-07T21:56:45.105Z,22.29
2023-07-07T21:59:23.387Z,22.30
2023-07-07T22:01:52.357Z,22.21
2023-07-07T22:04:22.715Z,22.23
2023-07-07T22:06:50.570Z,22.19
2023-07-07T22:09:19.067Z,22.24
2023-07-07T22:11:46.593Z,22.19
2023-07-07T22:14:13.623Z,21.99
2023-07-07T22:16:40.876Z,21.91
2023-07-07T22:19:12.952Z,21.95
2023-07-07T22:21:39.985Z,21.98
2023-07-07T22:24:06.940Z,21.95
2023-07-07T22:26:33.873Z,21.94
2023-07-07T22:29:01.919Z,21.88
2023-07-07T22:31:28.928Z,21.89
2023-07-07T22:33:55.893Z,21.85
2023-07-07T22:36:26.432Z,21.77
2023-07-07T22:38:53.360Z,21.68
2023-07-07T22:41:23.581Z,21.66
2023-07-07T22:43:51.147Z,21.61
2023-07-07T22:46:21.676Z,21.53
2023-07-07T22:48:49.124Z,21.42
2023-07-07T22:51:16.853Z,21.46
2023-07-07T22:53:45.316Z,21.43
2023-07-07T22:56:30.673Z,21.40
2023-07-07T22:58:59.610Z,21.26
2023-07-07T23:01:29.388Z,21.27
2023-07-07T23:04:07.977Z,21.24
2023-07-07T23:06:36.165Z,21.11
2023-07-07T23:09:38.031Z,21.00
2023-07-07T23:12:19.512Z,20.86
2023-07-07T23:14:47.539Z,20.74
2023-07-07T23:17:27.859Z,20.76
2023-07-07T23:19:59.096Z,20.72
2023-07-07T23:22:37.075Z,20.65
2023-07-07T23:25:08.031Z,20.67
2023-07-07T23:27:41.880Z,20.71
2023-07-07T23:30:08.737Z,20.69
2023-07-07T23:32:44.301Z,20.59
2023-07-07T23:35:11.687Z,20.59
2023-07-07T23:37:39.656Z,20.37
2023-07-07T23:40:21.618Z,20.56
2023-07-07T23:42:48.678Z,20.45
2023-07-07T23:45:15.673Z,20.22
2023-07-07T23:47:47.928Z,20.35
2023-07-07T23:50:49.158Z,20.18
2023-07-07T23:53:17.442Z,20.31
2023-07-07T23:55:44.762Z,20.30
2023-07-07T23:58:19.865Z,20.27
